Time;durP1;ratioP1;P1;durP2;ratioP2;P2;SDS_P1;SDS_P2;PMS_P1;PMS_P2;Temp;Humidity;BMP_temperature;BMP_pressure;BME280_temperature;BME280_humidity;BME280_pressure;Samples;Min_cycle;Max_cycle;Signal;HPM_P1;HPM_P2
2023/11/28 00:00:32;;;;;;;;;42.33;37.67;;;;;-143.90;100.00;75428.59;4825088;28;103583;-75
2023/11/28 00:02:58;;;;;;;;;42.33;35.00;;;;;-143.90;100.00;75428.59;4825664;28;101826;-75
2023/11/28 00:05:26;;;;;;;;;47.33;37.00;;;;;-143.90;100.00;75424.44;4827659;28;102080;-76
2023/11/28 00:07:52;;;;;;;;;58.00;47.67;;;;;-143.90;100.00;75416.19;4828858;28;101848;-74
2023/11/28 00:10:19;;;;;;;;;41.33;37.33;;;;;-143.90;100.00;75420.31;4824599;28;108210;-75
2023/11/28 00:12:46;;;;;;;;;47.33;35.00;;;;;-143.90;100.00;75416.19;4784093;28;1169786;-75
2023/11/28 00:15:14;;;;;;;;;48.33;36.67;;;;;-143.90;100.00;75416.19;4830503;28;102245;-75
2023/11/28 00:17:41;;;;;;;;;47.00;38.67;;;;;-143.90;100.00;75416.19;4831282;28;101919;-75
2023/11/28 00:20:09;;;;;;;;;51.33;37.33;;;;;-143.90;100.00;75412.03;4830722;28;103351;-75
2023/11/28 00:22:36;;;;;;;;;54.33;37.00;;;;;-143.90;100.00;75418.25;4846433;28;102473;-75
2023/11/28 00:25:03;;;;;;;;;50.67;35.00;;;;;-143.90;100.00;75418.25;4833482;28;101952;-75
2023/11/28 00:27:30;;;;;;;;;35.33;29.67;;;;;-143.90;100.00;75416.19;4861144;28;102145;-75
2023/11/28 00:29:57;;;;;;;;;48.00;41.00;;;;;-143.90;100.00;75428.59;4856714;28;103829;-75
2023/11/28 00:32:24;;;;;;;;;44.33;35.00;;;;;-143.90;100.00;75422.38;4835642;28;102615;-74
2023/11/28 00:34:51;;;;;;;;;41.00;32.33;;;;;-143.90;100.00;75418.25;4834604;28;102162;-75
2023/11/28 00:37:17;;;;;;;;;39.67;35.33;;;;;-143.90;100.00;75420.31;4835111;28;102256;-75
2023/11/28 00:39:44;;;;;;;;;38.33;30.00;;;;;-143.90;100.00;75420.31;4835058;28;102814;-75
2023/11/28 00:42:12;;;;;;;;;33.67;30.33;;;;;-143.90;100.00;75428.59;4834439;28;102424;-74
2023/11/28 00:44:41;;;;;;;;;49.00;36.00;;;;;-143.90;100.00;75412.03;4829464;28;101648;-75
2023/11/28 00:47:09;;;;;;;;;36.33;27.33;;;;;-143.90;100.00;75416.19;4844002;28;102249;-76
2023/11/28 00:49:40;;;;;;;;;32.33;26.00;;;;;-143.90;100.00;75409.97;4830081;28;103345;-77
2023/11/28 00:52:07;;;;;;;;;39.67;33.00;;;;;-143.90;100.00;75428.59;4833263;28;102761;-77
2023/11/28 00:54:34;;;;;;;;;34.67;28.67;;;;;-143.90;100.00;75412.03;4829500;28;101836;-77
2023/11/28 00:57:01;;;;;;;;;36.33;28.00;;;;;-143.90;100.00;75407.91;4840100;28;102003;-77
2023/11/28 00:59:27;;;;;;;;;43.67;28.67;;;;;-143.90;100.00;75403.78;4830594;28;103641;-77
2023/11/28 01:01:54;;;;;;;;;44.67;26.67;;;;;-143.90;100.00;75397.56;4827275;28;102791;-76
2023/11/28 01:04:21;;;;;;;;;43.00;32.00;;;;;-143.90;100.00;75403.78;4828599;28;102027;-76
2023/11/28 01:06:47;;;;;;;;;28.00;25.00;;;;;-143.90;100.00;75399.63;4830235;28;102114;-77
2023/11/28 01:09:14;;;;;;;;;43.00;29.67;;;;;-143.90;100.00;75397.56;4824009;28;103515;-77
2023/11/28 01:11:41;;;;;;;;;43.67;28.67;;;;;-143.90;100.00;75399.63;4831842;28;102266;-77
2023/11/28 01:14:08;;;;;;;;;39.67;31.00;;;;;-143.90;100.00;75391.38;4830497;28;101770;-76
2023/11/28 01:16:35;;;;;;;;;35.33;29.00;;;;;-143.90;100.00;75387.22;4830842;28;101959;-76
2023/11/28 01:19:02;;;;;;;;;30.00;27.00;;;;;-143.90;100.00;75383.09;4829155;28;103415;-77
2023/11/28 01:21:28;;;;;;;;;37.33;29.67;;;;;-143.90;100.00;75378.97;4834453;28;102138;-76
2023/11/28 01:23:55;;;;;;;;;36.00;30.33;;;;;-143.90;100.00;75370.69;4835356;28;102353;-76
2023/11/28 01:26:21;;;;;;;;;29.67;24.00;;;;;-143.90;100.00;75366.56;4832270;28;102490;-75
2023/11/28 01:28:48;;;;;;;;;30.00;24.67;;;;;-143.90;100.00;75364.50;4829433;28;103828;-75
2023/11/28 01:31:15;;;;;;;;;27.67;23.67;;;;;-143.90;100.00;75356.22;4834130;28;102360;-75
2023/11/28 01:33:41;;;;;;;;;33.67;27.67;;;;;-143.90;100.00;75345.88;4830787;28;102046;-75
2023/11/28 01:36:09;;;;;;;;;32.00;21.67;;;;;-143.90;100.00;75337.63;4831971;28;102053;-74
2023/11/28 01:38:37;;;;;;;;;42.33;34.00;;;;;-143.90;100.00;75335.53;4828540;28;103370;-75
2023/11/28 01:41:04;;;;;;;;;29.67;27.00;;;;;-143.90;100.00;75339.69;4829011;28;102438;-74
2023/11/28 01:43:31;;;;;;;;;31.00;23.33;;;;;-143.90;100.00;75331.41;4834131;28;102196;-74
2023/11/28 01:45:58;;;;;;;;;37.00;32.67;;;;;-143.90;100.00;75331.41;4830411;28;102012;-74
2023/11/28 01:48:25;;;;;;;;;32.67;27.33;;;;;-143.90;100.00;75337.63;4829838;28;103719;-72
2023/11/28 01:50:52;;;;;;;;;26.33;23.67;;;;;-143.90;100.00;75323.16;4832501;28;101843;-74
2023/11/28 01:53:20;;;;;;;;;28.67;23.00;;;;;-143.90;100.00;75321.06;4827999;28;102038;-74
2023/11/28 01:55:49;;;;;;;;;23.00;20.33;;;;;-143.90;100.00;75308.66;4851065;28;102282;-74
2023/11/28 01:58:16;;;;;;;;;32.00;27.33;;;;;-143.90;100.00;75310.75;4832389;28;103390;-73
2023/11/28 02:00:44;;;;;;;;;32.00;24.33;;;;;-143.90;100.00;75296.25;4829877;28;102558;-74
2023/11/28 02:03:13;;;;;;;;;47.33;35.67;;;;;-143.90;100.00;75306.59;4831043;28;102411;-76
2023/11/28 02:05:41;;;;;;;;;35.67;30.33;;;;;-143.90;100.00;75304.53;4824957;28;101930;-74
2023/11/28 02:08:08;;;;;;;;;43.00;28.00;;;;;-143.90;100.00;75302.47;4832900;28;103249;-74
2023/11/28 02:10:38;;;;;;;;;38.00;30.67;;;;;-143.90;100.00;75292.13;4831326;28;102680;-74
2023/11/28 02:13:08;;;;;;;;;37.00;29.33;;;;;-143.90;100.00;75288.00;4830100;28;101928;-74
2023/11/28 02:15:45;;;;;;;;;24.00;23.00;;;;;-143.90;100.00;75294.19;4830482;28;102954;-74
2023/11/28 02:18:13;;;;;;;;;32.67;26.00;;;;;-143.90;100.00;75296.25;4834902;28;103556;-74
2023/11/28 02:20:40;;;;;;;;;24.00;20.33;;;;;-143.90;100.00;75288.00;4832020;28;101907;-74
2023/11/28 02:23:07;;;;;;;;;9.00;6.33;;;;;-143.90;100.00;75283.84;4844958;28;101932;-74
2023/11/28 02:25:42;;;;;;;;;30.67;27.33;;;;;-143.90;100.00;75273.53;4833462;28;105565;-74
2023/11/28 02:28:09;;;;;;;;;37.00;27.67;;;;;-143.90;100.00;75271.47;4828232;28;103451;-74
2023/11/28 02:30:36;;;;;;;;;26.33;22.00;;;;;-143.90;100.00;75256.97;4832548;28;102185;-74
2023/11/28 02:33:03;;;;;;;;;29.67;24.00;;;;;-143.90;100.00;75256.97;4831580;28;101951;-74
2023/11/28 02:35:29;;;;;;;;;34.00;26.33;;;;;-143.90;100.00;75248.72;4830356;28;101868;-74
2023/11/28 02:37:56;;;;;;;;;34.00;30.00;;;;;-143.90;100.00;75242.50;4832427;28;103636;-73
2023/11/28 02:40:23;;;;;;;;;32.00;27.33;;;;;-143.90;100.00;75242.50;4882831;28;102092;-74
2023/11/28 02:42:49;;;;;;;;;41.67;30.33;;;;;-143.90;100.00;75234.25;4846250;28;106459;-74
2023/11/28 02:45:16;;;;;;;;;30.00;27.00;;;;;-143.90;100.00;75238.38;4829341;28;103253;-74
2023/11/28 02:47:43;;;;;;;;;20.33;18.67;;;;;-143.90;100.00;75234.25;4830492;28;103229;-74
2023/11/28 02:50:10;;;;;;;;;27.33;23.67;;;;;-143.90;100.00;75219.78;4834464;28;102538;-74
2023/11/28 02:52:42;;;;;;;;;24.67;21.00;;;;;-143.90;100.00;75205.28;4830178;28;101810;-74
2023/11/28 02:55:09;;;;;;;;;28.67;25.00;;;;;-143.90;100.00;75205.28;4832098;28;102050;-74
2023/11/28 02:57:35;;;;;;;;;37.00;24.33;;;;;-143.90;100.00;75201.16;4831985;28;103647;-74
2023/11/28 03:00:04;;;;;;;;;41.67;27.33;;;;;-143.90;100.00;75197.03;4845192;28;101786;-74
2023/11/28 03:02:35;;;;;;;;;36.33;32.00;;;;;-143.90;100.00;75194.97;4829116;28;101918;-73
2023/11/28 03:05:03;;;;;;;;;39.33;34.33;;;;;-143.90;100.00;75203.22;4834038;28;102809;-73
2023/11/28 03:07:30;;;;;;;;;40.00;32.33;;;;;-143.90;100.00;75201.16;4836995;28;103592;-75
2023/11/28 03:09:56;;;;;;;;;33.33;27.67;;;;;-143.90;100.00;75194.97;4834326;28;101776;-75
2023/11/28 03:12:23;;;;;;;;;33.67;33.67;;;;;-143.90;100.00;75199.09;4835304;28;101808;-75
2023/11/28 03:14:50;;;;;;;;;34.00;28.67;;;;;-143.90;100.00;75201.16;4835312;28;102220;-74
2023/11/28 03:17:17;;;;;;;;;45.67;36.33;;;;;-143.90;100.00;75209.44;4831727;28;103734;-74
2023/11/28 03:19:44;;;;;;;;;36.33;32.67;;;;;-143.90;100.00;75194.97;4845844;28;102234;-74
2023/11/28 03:22:10;;;;;;;;;39.00;30.33;;;;;-143.90;100.00;75188.75;4843488;28;103341;-74
2023/11/28 03:24:37;;;;;;;;;28.67;22.67;;;;;-143.90;100.00;75176.34;4833296;28;102806;-74
2023/11/28 03:27:04;;;;;;;;;35.33;31.00;;;;;-143.90;100.00;75184.63;4828606;28;103452;-73
2023/11/28 03:29:31;;;;;;;;;30.33;27.33;;;;;-143.90;100.00;75172.22;4829944;28;102350;-73
2023/11/28 03:31:57;;;;;;;;;28.67;26.00;;;;;-143.90;100.00;75168.09;4828022;28;101718;-74
2023/11/28 03:34:24;;;;;;;;;32.00;27.67;;;;;-143.90;100.00;75166.03;4832460;28;101997;-74
2023/11/28 03:36:51;;;;;;;;;30.33;23.00;;;;;-143.90;100.00;75168.09;4829608;28;111073;-74
2023/11/28 03:39:17;;;;;;;;;30.67;25.67;;;;;-143.90;100.00;75168.09;4830726;28;102889;-74
2023/11/28 03:41:48;;;;;;;;;39.33;31.67;;;;;-143.90;100.00;75157.75;4830182;28;102338;-74
2023/11/28 03:44:14;;;;;;;;;29.33;28.00;;;;;-143.90;100.00;75155.69;4830165;28;102932;-74
2023/11/28 03:46:41;;;;;;;;;30.67;24.67;;;;;-143.90;100.00;75159.81;4828258;28;103538;-74
2023/11/28 03:49:08;;;;;;;;;38.00;32.67;;;;;-143.90;100.00;75163.94;4828983;28;101908;-74
2023/11/28 03:51:38;;;;;;;;;36.67;28.00;;;;;-143.90;100.00;75155.69;4831173;28;102264;-76
2023/11/28 03:54:05;;;;;;;;;34.33;27.00;;;;;-143.90;100.00;75155.69;4829508;28;101916;-73
2023/11/28 03:56:32;;;;;;;;;38.67;29.00;;;;;-143.90;100.00;75155.69;4845338;28;104000;-75
2023/11/28 03:58:59;;;;;;;;;34.00;28.00;;;;;-143.90;100.00;75153.63;4829003;28;102712;-75
2023/11/28 04:01:26;;;;;;;;;30.67;27.00;;;;;-143.90;100.00;75145.34;4828098;28;102637;-74
2023/11/28 04:03:53;;;;;;;;;37.67;29.00;;;;;-143.90;100.00;75132.94;4832964;28;102219;-74
2023/11/28 04:06:19;;;;;;;;;34.33;27.33;;;;;-143.90;100.00;75128.81;4827475;28;102717;-74
2023/11/28 04:08:46;;;;;;;;;32.33;28.00;;;;;-143.90;100.00;75130.88;4866104;28;102137;-74
2023/11/28 04:11:13;;;;;;;;;38.33;34.67;;;;;-143.90;100.00;75126.75;4830775;28;101725;-74
2023/11/28 04:13:40;;;;;;;;;38.67;34.67;;;;;-143.90;100.00;75118.47;4830738;28;102194;-74
2023/11/28 04:16:07;;;;;;;;;34.67;29.00;;;;;-143.90;100.00;75118.47;4829125;28;103838;-74
2023/11/28 04:18:34;;;;;;;;;30.67;24.67;;;;;-143.90;100.00;75116.41;4831338;28;102301;-74
2023/11/28 04:21:01;;;;;;;;;31.67;28.33;;;;;-143.90;100.00;75106.06;4830259;28;101703;-74
2023/11/28 04:23:27;;;;;;;;;35.00;32.33;;;;;-143.90;100.00;75104.00;4849388;28;102674;-74
2023/11/28 04:25:54;;;;;;;;;31.67;27.00;;;;;-143.90;100.00;75099.88;4837033;28;103546;-74
2023/11/28 04:28:21;;;;;;;;;35.00;29.00;;;;;-143.90;100.00;75101.94;4831779;28;102206;-74
2023/11/28 04:30:47;;;;;;;;;32.00;29.33;;;;;-143.90;100.00;75099.88;4830051;28;102132;-74
2023/11/28 04:33:14;;;;;;;;;46.67;35.67;;;;;-143.90;100.00;75099.88;4831555;28;101633;-74
2023/11/28 04:35:41;;;;;;;;;38.33;32.33;;;;;-143.90;100.00;75097.78;4829210;28;103769;-74
2023/11/28 04:38:07;;;;;;;;;43.00;33.67;;;;;-143.90;100.00;75093.66;4829444;28;102468;-75
2023/11/28 04:40:34;;;;;;;;;42.00;34.00;;;;;-143.90;100.00;75085.38;4831294;28;101669;-74
2023/11/28 04:43:01;;;;;;;;;47.33;38.33;;;;;-143.90;100.00;75089.53;4832915;28;102333;-74
2023/11/28 04:45:27;;;;;;;;;38.00;34.33;;;;;-143.90;100.00;75093.66;4828486;28;103535;-74
2023/11/28 04:47:54;;;;;;;;;53.67;43.67;;;;;-143.90;100.00;75089.53;4833593;28;102786;-74
2023/11/28 04:50:23;;;;;;;;;46.33;37.00;;;;;-143.90;100.00;75097.78;4831042;28;101679;-75
2023/11/28 04:52:50;;;;;;;;;51.67;40.67;;;;;-143.90;100.00;75095.72;4842313;28;102190;-74
2023/11/28 04:55:16;;;;;;;;;47.67;35.00;;;;;-143.90;100.00;75089.53;4828558;28;103373;-74
2023/11/28 04:57:43;;;;;;;;;45.00;39.00;;;;;-143.90;100.00;75085.38;4825544;28;102685;-74
2023/11/28 05:00:10;;;;;;;;;53.00;41.67;;;;;-143.90;100.00;75089.53;4831361;28;102133;-74
2023/11/28 05:02:37;;;;;;;;;54.67;43.00;;;;;-143.90;100.00;75097.78;4830581;28;101612;-74
2023/11/28 05:05:05;;;;;;;;;54.00;46.00;;;;;-143.90;100.00;75101.94;4830138;28;103327;-74
2023/11/28 05:07:32;;;;;;;;;66.33;46.00;;;;;-143.90;100.00;75114.34;4829551;28;101967;-73
2023/11/28 05:10:02;;;;;;;;;62.00;49.33;;;;;-143.90;100.00;75101.94;4827264;28;102022;-72
2023/11/28 05:12:30;;;;;;;;;61.00;43.67;;;;;-143.90;100.00;75104.00;4828395;28;101669;-74
2023/11/28 05:14:57;;;;;;;;;57.00;43.33;;;;;-143.90;100.00;75104.00;4831471;28;103516;-73
2023/11/28 05:17:23;;;;;;;;;63.33;43.00;;;;;-143.90;100.00;75106.06;4832268;28;103427;-74
2023/11/28 05:19:50;;;;;;;;;54.67;44.33;;;;;-143.90;100.00;75101.94;4829699;28;105580;-73
2023/11/28 05:22:16;;;;;;;;;60.33;47.00;;;;;-143.90;100.00;75099.88;4845364;28;102746;-73
2023/11/28 05:24:43;;;;;;;;;55.33;37.67;;;;;-143.90;100.00;75097.78;4833705;28;103465;-73
2023/11/28 05:27:10;;;;;;;;;61.33;46.33;;;;;-143.90;100.00;75095.72;4830515;28;102433;-73
2023/11/28 05:29:36;;;;;;;;;71.00;50.50;;;;;-143.90;100.00;75097.78;4832452;28;102190;-73
2023/11/28 05:32:04;;;;;;;;;58.67;46.33;;;;;-143.90;100.00;75104.00;4831239;28;101662;-73
2023/11/28 05:34:31;;;;;;;;;56.33;46.00;;;;;-143.90;100.00;75104.00;4835243;28;103376;-73
2023/11/28 05:36:58;;;;;;;;;52.67;42.67;;;;;-143.90;100.00;75104.00;4892351;28;102101;-73
2023/11/28 05:39:24;;;;;;;;;62.00;49.00;;;;;-143.90;100.00;75108.13;4891462;28;101733;-74
2023/11/28 05:41:51;;;;;;;;;55.00;46.00;;;;;-143.90;100.00;75118.47;4836738;28;101850;-74
2023/11/28 05:44:18;;;;;;;;;52.00;43.33;;;;;-143.90;100.00;75114.34;4833906;28;103430;-74
2023/11/28 05:46:44;;;;;;;;;69.00;50.00;;;;;-143.90;100.00;75110.19;4835815;28;103938;-74
2023/11/28 05:49:11;;;;;;;;;62.50;48.50;;;;;-143.90;100.00;75122.59;4831828;28;101704;-74
2023/11/28 05:51:38;;;;;;;;;78.00;55.00;;;;;-143.90;100.00;75124.66;4831246;28;101817;-73
2023/11/28 05:54:05;;;;;;;;;53.33;45.33;;;;;-143.90;100.00;75130.88;4831172;28;103885;-75
2023/11/28 05:56:32;;;;;;;;;67.50;50.25;;;;;-143.90;100.00;75135.00;4847316;28;102354;-75
2023/11/28 05:58:58;;;;;;;;;41.50;23.50;;;;;-143.90;100.00;75130.88;4831349;28;101779;-75
2023/11/28 06:01:26;;;;;;;;;71.00;49.25;;;;;-143.90;100.00;75130.88;4834523;28;106434;-75
2023/11/28 06:03:53;;;;;;;;;59.33;43.33;;;;;-143.90;100.00;75130.88;4831097;28;108196;-75
2023/11/28 06:06:20;;;;;;;;;66.00;49.00;;;;;-143.90;100.00;75132.94;4828053;28;102075;-75
2023/11/28 06:08:47;;;;;;;;;62.00;48.33;;;;;-143.90;100.00;75128.81;4831622;28;102730;-73
2023/11/28 06:11:14;;;;;;;;;58.33;44.67;;;;;-143.90;100.00;75120.53;4833896;28;102333;-74
2023/11/28 06:13:41;;;;;;;;;65.00;47.00;;;;;-143.90;100.00;75120.53;4831876;28;103721;-74
2023/11/28 06:16:08;;;;;;;;;62.50;46.25;;;;;-143.90;100.00;75118.47;4833429;28;102724;-74
2023/11/28 06:18:37;;;;;;;;;54.00;44.00;;;;;-143.90;100.00;75120.53;4836251;28;102278;-74
2023/11/28 06:21:09;;;;;;;;;56.33;45.33;;;;;-143.90;100.00;75126.75;4842732;28;102055;-74
2023/11/28 06:23:35;;;;;;;;;65.00;46.33;;;;;-143.90;100.00;75137.06;4835403;28;103742;-75
2023/11/28 06:26:02;;;;;;;;;49.67;41.33;;;;;-143.90;100.00;75124.66;4831139;28;101864;-75
2023/11/28 06:28:29;;;;;;;;;62.25;45.00;;;;;-143.90;100.00;75124.66;4833345;28;101743;-74
2023/11/28 06:30:56;;;;;;;;;46.67;41.67;;;;;-143.90;100.00;75124.66;4833394;28;102305;-73
2023/11/28 06:33:23;;;;;;;;;54.33;40.00;;;;;-143.90;100.00;75130.88;4833983;28;107791;-75
2023/11/28 06:35:50;;;;;;;;;67.50;49.50;;;;;-143.90;100.00;75126.75;4832534;28;102086;-75
2023/11/28 06:38:17;;;;;;;;;54.33;45.67;;;;;-143.90;100.00;75132.94;4834522;28;102663;-74
2023/11/28 06:40:43;;;;;;;;;56.00;44.00;;;;;-143.90;100.00;75130.88;4834917;28;101913;-74
2023/11/28 06:43:10;;;;;;;;;63.00;48.00;;;;;-143.90;100.00;75128.81;4834086;28;106109;-74
2023/11/28 06:45:38;;;;;;;;;48.00;43.00;;;;;-143.90;100.00;75118.47;4836132;28;102171;-75
2023/11/28 06:48:05;;;;;;;;;45.33;40.67;;;;;-143.90;100.00;75101.94;4835242;28;102100;-74
2023/11/28 06:50:32;;;;;;;;;58.33;43.00;;;;;-143.90;100.00;75101.94;4835094;28;101783;-74
2023/11/28 06:52:58;;;;;;;;;53.33;35.33;;;;;-143.90;100.00;75101.94;4832491;28;103539;-74
2023/11/28 06:55:25;;;;;;;;;60.67;43.67;;;;;-143.90;100.00;75110.19;4833650;28;103318;-72
2023/11/28 06:57:52;;;;;;;;;47.33;36.67;;;;;-143.90;100.00;75097.78;4833222;28;101741;-74
2023/11/28 07:00:19;;;;;;;;;63.00;41.67;;;;;-143.90;100.00;75104.00;4837014;28;102317;-74
2023/11/28 07:02:46;;;;;;;;;53.33;44.33;;;;;-143.90;100.00;75101.94;4836452;28;103433;-74
2023/11/28 07:05:13;;;;;;;;;49.00;41.00;;;;;-143.90;100.00;75099.88;4837770;28;102588;-74
2023/11/28 07:07:41;;;;;;;;;52.67;44.00;;;;;-143.90;100.00;75106.06;4834276;28;102161;-74
2023/11/28 07:10:08;;;;;;;;;49.33;41.33;;;;;-143.90;100.00;75095.72;4835246;28;103022;-74
2023/11/28 07:12:35;;;;;;;;;51.00;44.67;;;;;-143.90;100.00;75087.47;4829647;28;103502;-74
2023/11/28 07:15:03;;;;;;;;;45.67;34.00;;;;;-143.90;100.00;75085.38;4833393;28;101746;-74
2023/11/28 07:17:30;;;;;;;;;49.00;37.33;;;;;-143.90;100.00;75077.13;4830715;28;101912;-75
2023/11/28 07:19:57;;;;;;;;;48.00;36.33;;;;;-143.90;100.00;75068.84;4834511;28;102122;-73
2023/11/28 07:22:23;;;;;;;;;53.00;46.67;;;;;-143.90;100.00;75068.84;4848393;28;103593;-74
2023/11/28 07:24:50;;;;;;;;;65.00;44.67;;;;;-143.90;100.00;75062.66;4835549;28;101741;-74
2023/11/28 07:27:17;;;;;;;;;55.00;37.00;;;;;-143.90;100.00;75066.78;4821797;28;102331;-74
2023/11/28 07:29:43;;;;;;;;;54.33;41.00;;;;;-143.90;100.00;75068.84;4831150;28;101878;-74
2023/11/28 07:32:10;;;;;;;;;61.00;43.00;;;;;-143.90;100.00;75072.97;4827477;28;103563;-73
2023/11/28 07:34:37;;;;;;;;;58.67;45.33;;;;;-143.90;100.00;75060.59;4833239;28;104043;-74
2023/11/28 07:37:04;;;;;;;;;50.00;43.33;;;;;-143.90;100.00;75068.84;4832790;28;101658;-74
2023/11/28 07:39:31;;;;;;;;;71.00;48.00;;;;;-143.90;100.00;75072.97;4845664;28;101706;-74
2023/11/28 07:41:58;;;;;;;;;46.33;38.33;;;;;-143.90;100.00;75072.97;4831861;28;103679;-73
2023/11/28 07:44:24;;;;;;;;;57.00;46.00;;;;;-143.90;100.00;75064.72;4833862;28;101771;-74
2023/11/28 07:46:51;;;;;;;;;56.33;41.67;;;;;-143.90;100.00;75058.50;4838273;28;101604;-74
2023/11/28 07:49:18;;;;;;;;;64.67;47.33;;;;;-143.90;100.00;75056.44;4892001;28;102402;-73
2023/11/28 07:51:44;;;;;;;;;67.33;49.67;;;;;-143.90;100.00;75056.44;4860224;28;103541;-74
2023/11/28 07:54:11;;;;;;;;;55.33;40.67;;;;;-143.90;100.00;75046.09;4836296;28;101952;-74
2023/11/28 07:56:37;;;;;;;;;49.67;42.00;;;;;-143.90;100.00;75052.31;4834244;28;102158;-74
2023/11/28 07:59:04;;;;;;;;;49.33;43.00;;;;;-143.90;100.00;75035.78;4832017;28;101930;-73
2023/11/28 08:01:31;;;;;;;;;50.00;42.33;;;;;-143.90;100.00;75031.63;4833598;28;103690;-72
2023/11/28 08:03:57;;;;;;;;;59.33;46.67;;;;;-143.90;100.00;75019.22;4832243;28;102674;-74
2023/11/28 08:06:25;;;;;;;;;48.67;44.33;;;;;-143.90;100.00;75025.44;4825521;28;102095;-74
2023/11/28 08:08:51;;;;;;;;;63.67;44.33;;;;;-143.90;100.00;75015.09;4833371;28;102214;-74
2023/11/28 08:11:18;;;;;;;;;49.33;41.00;;;;;-143.90;100.00;75004.75;4831205;28;103357;-74
2023/11/28 08:13:45;;;;;;;;;55.33;44.33;;;;;-143.90;100.00;75006.84;4830104;28;102060;-74
2023/11/28 08:16:12;;;;;;;;;56.00;44.00;;;;;-143.90;100.00;74988.22;4832501;28;101929;-74
2023/11/28 08:18:39;;;;;;;;;49.00;41.67;;;;;-143.90;100.00;74969.63;4830051;28;103191;-74
2023/11/28 08:21:09;;;;;;;;;42.00;37.00;;;;;-143.90;100.00;74975.81;4832562;28;103589;-74
2023/11/28 08:23:35;;;;;;;;;25.00;8.67;;;;;-143.90;100.00;74967.56;4843791;28;102697;-75
2023/11/28 08:26:02;;;;;;;;;42.33;37.00;;;;;-143.90;100.00;74953.09;4832226;28;102563;-74
2023/11/28 08:28:29;;;;;;;;;45.33;36.33;;;;;-143.90;100.00;74957.22;4835438;28;102008;-74
2023/11/28 08:30:56;;;;;;;;;53.67;44.67;;;;;-143.90;100.00;74961.34;4832412;28;107968;-75
2023/11/28 08:33:22;;;;;;;;;54.33;41.67;;;;;-143.90;100.00;74944.81;4833855;28;102500;-75
2023/11/28 08:35:49;;;;;;;;;65.00;42.00;;;;;-143.90;100.00;74948.94;4829810;28;101851;-74
2023/11/28 08:38:16;;;;;;;;;52.00;42.33;;;;;-143.90;100.00;74957.22;4830481;28;102056;-74
2023/11/28 08:40:43;;;;;;;;;59.00;41.33;;;;;-143.90;100.00;74948.94;4829655;28;103367;-75
2023/11/28 08:43:09;;;;;;;;;55.67;42.33;;;;;-143.90;100.00;74953.09;4860923;28;102099;-75
2023/11/28 08:45:36;;;;;;;;;46.33;39.00;;;;;-143.90;100.00;74951.00;4887057;28;101804;-75
2023/11/28 08:48:03;;;;;;;;;58.00;43.33;;;;;-143.90;100.00;74946.88;4891197;28;101904;-75
2023/11/28 08:50:29;;;;;;;;;45.67;35.67;;;;;-143.90;100.00;74942.75;4908791;28;103209;-75
2023/11/28 08:52:56;;;;;;;;;52.67;41.00;;;;;-143.90;100.00;74948.94;4892056;28;101854;-75
2023/11/28 08:55:23;;;;;;;;;40.67;34.33;;;;;-143.90;100.00;74917.94;4890417;28;101575;-76
2023/11/28 08:57:49;;;;;;;;;47.33;42.00;;;;;-143.90;100.00;74913.81;4892396;28;101592;-75
2023/11/28 09:00:16;;;;;;;;;39.00;32.00;;;;;-143.90;100.00;74889.00;4890352;28;103904;-75
2023/11/28 09:02:45;;;;;;;;;46.67;41.00;;;;;-143.90;100.00;74886.94;4891153;28;101935;-75
2023/11/28 09:05:12;;;;;;;;;54.00;43.33;;;;;-143.90;100.00;74878.66;4891822;28;101498;-76
2023/11/28 09:07:39;;;;;;;;;41.33;34.67;;;;;-143.90;100.00;74872.47;4890073;28;102185;-75
2023/11/28 09:10:06;;;;;;;;;39.33;36.33;;;;;-143.90;100.00;74872.47;4888644;28;107187;-75
2023/11/28 09:12:34;;;;;;;;;52.00;35.67;;;;;-143.90;100.00;74882.78;4892373;28;102024;-74
2023/11/28 09:15:01;;;;;;;;;43.33;31.33;;;;;-143.90;100.00;74874.53;4872842;28;101946;-74
2023/11/28 09:17:28;;;;;;;;;49.67;40.00;;;;;-143.90;100.00;74870.38;4874970;28;101654;-75
2023/11/28 09:19:55;;;;;;;;;47.67;37.33;;;;;-143.90;100.00;74870.38;4871353;28;103458;-75
2023/11/28 09:22:22;;;;;;;;;25.67;18.67;;;;;-143.90;100.00;74862.13;4871978;28;102013;-75
2023/11/28 09:24:49;;;;;;;;;38.00;35.00;;;;;-143.90;100.00;74853.84;4869898;28;101933;-75
2023/11/28 09:27:16;;;;;;;;;46.00;39.00;;;;;-143.90;100.00;74839.38;4872307;28;101748;-74
2023/11/28 09:29:42;;;;;;;;;40.00;32.33;;;;;-143.90;100.00;74841.44;4870883;28;103580;-75
2023/11/28 09:32:10;;;;;;;;;49.33;38.00;;;;;-143.90;100.00;74841.44;4873025;28;102219;-75
2023/11/28 09:34:36;;;;;;;;;38.67;33.33;;;;;-143.90;100.00;74843.53;4872981;28;101737;-75
2023/11/28 09:37:04;;;;;;;;;48.33;35.00;;;;;-143.90;100.00;74851.78;4872244;28;101881;-74
2023/11/28 09:39:33;;;;;;;;;40.67;33.00;;;;;-143.90;100.00;74845.59;4862079;28;103537;-75
2023/11/28 09:42:05;;;;;;;;;42.67;39.33;;;;;-143.90;100.00;74858.00;4872231;28;101696;-75
2023/11/28 09:44:35;;;;;;;;;44.33;36.00;;;;;-143.90;100.00;74862.13;4862920;28;101712;-74
2023/11/28 09:47:10;;;;;;;;;40.33;35.67;;;;;-143.90;100.00;74849.72;4872175;28;102291;-74
2023/11/28 09:49:41;;;;;;;;;47.33;36.00;;;;;-143.90;100.00;74855.91;4871072;28;108840;-75
2023/11/28 09:52:12;;;;;;;;;40.33;35.33;;;;;-143.90;100.00;74866.25;4873705;28;102126;-74
2023/11/28 09:54:40;;;;;;;;;42.67;37.67;;;;;-143.90;100.00;74870.38;4876026;28;101957;-74
2023/11/28 09:57:10;;;;;;;;;61.67;42.00;;;;;-143.90;100.00;74851.78;4873875;28;101975;-74
2023/11/28 09:59:38;;;;;;;;;35.00;29.00;;;;;-143.90;100.00;74829.03;4885558;28;103439;-73
2023/11/28 10:02:14;;;;;;;;;35.33;31.00;;;;;-143.90;100.00;74800.09;4875095;28;103300;-73
2023/11/28 10:04:42;;;;;;;;;26.33;25.33;;;;;-143.90;100.00;74791.84;4875743;28;101730;-74
2023/11/28 10:07:11;;;;;;;;;29.67;24.00;;;;;-143.90;100.00;74787.69;4875672;28;101984;-74
2023/11/28 10:09:40;;;;;;;;;29.33;22.67;;;;;-143.90;100.00;74783.56;4872454;28;103507;-74
2023/11/28 10:12:09;;;;;;;;;35.00;28.67;;;;;-143.90;100.00;74793.91;4872563;28;102433;-75
2023/11/28 10:14:39;;;;;;;;;21.33;20.67;;;;;-143.90;100.00;74785.63;4888710;28;101669;-74
2023/11/28 10:17:09;;;;;;;;;33.67;26.00;;;;;-143.90;100.00;74783.56;4888974;28;102502;-73
2023/11/28 10:19:36;;;;;;;;;31.33;27.67;;;;;-143.90;100.00;74773.22;4893236;28;107001;-73
2023/11/28 10:22:05;;;;;;;;;34.33;26.00;;;;;-143.90;100.00;74767.03;4887819;28;102296;-72
2023/11/28 10:24:32;;;;;;;;;37.33;32.67;;;;;-143.90;100.00;74752.56;4893392;28;101675;-72
2023/11/28 10:27:00;;;;;;;;;31.67;25.67;;;;;-143.90;100.00;74746.34;4890507;28;102090;-74
2023/11/28 10:29:32;;;;;;;;;35.00;28.33;;;;;-143.90;100.00;74744.28;4890827;28;108216;-73
2023/11/28 10:32:00;;;;;;;;;28.67;25.67;;;;;-143.90;100.00;74746.34;4892596;28;101641;-74
2023/11/28 10:34:28;;;;;;;;;51.33;38.67;;;;;-143.90;100.00;74756.69;4891178;28;102357;-74
2023/11/28 10:36:58;;;;;;;;;50.33;41.00;;;;;-143.90;100.00;74783.56;4895709;28;101949;-74
2023/11/28 10:39:26;;;;;;;;;42.00;33.33;;;;;-143.90;100.00;74773.22;4889792;28;103437;-74
2023/11/28 10:41:53;;;;;;;;;41.00;33.33;;;;;-143.90;100.00;74771.16;4894782;28;101927;-73
2023/11/28 10:44:24;;;;;;;;;51.67;39.00;;;;;-143.90;100.00;74754.63;4885322;28;102412;-74
2023/11/28 10:46:57;;;;;;;;;34.33;32.00;;;;;-143.90;100.00;74744.28;4890067;28;102250;-73